sensor_id;sensor_type;location;lat;lon;timestamp;P1;durP1;ratioP1;P2;durP2;ratioP2
1106;SDS011;540;49.448;8.612;2023-04-24T00:02:16;2.95;;;1.20;;
1106;SDS011;540;49.448;8.612;2023-04-24T00:04:45;2.72;;;1.40;;
1106;SDS011;540;49.448;8.612;2023-04-24T00:07:13;2.10;;;1.05;;
1106;SDS011;540;49.448;8.612;2023-04-24T00:09:42;5.05;;;1.35;;
1106;SDS011;540;49.448;8.612;2023-04-24T00:12:11;2.38;;;1.10;;
1106;SDS011;540;49.448;8.612;2023-04-24T00:14:38;2.90;;;1.00;;
1106;SDS011;540;49.448;8.612;2023-04-24T00:17:08;1.45;;;1.00;;
1106;SDS011;540;49.448;8.612;2023-04-24T00:19:36;1.20;;;0.57;;
1106;SDS011;540;49.448;8.612;2023-04-24T00:22:03;5.13;;;0.90;;
1106;SDS011;540;49.448;8.612;2023-04-24T00:24:31;1.85;;;0.90;;
1106;SDS011;540;49.448;8.612;2023-04-24T00:26:59;1.48;;;0.60;;
1106;SDS011;540;49.448;8.612;2023-04-24T00:29:27;4.00;;;0.90;;
1106;SDS011;540;49.448;8.612;2023-04-24T00:31:55;1.35;;;0.63;;
1106;SDS011;540;49.448;8.612;2023-04-24T00:34:24;2.42;;;1.05;;
1106;SDS011;540;49.448;8.612;2023-04-24T00:36:52;1.17;;;0.70;;
1106;SDS011;540;49.448;8.612;2023-04-24T00:39:20;1.85;;;0.88;;
1106;SDS011;540;49.448;8.612;2023-04-24T00:41:49;2.08;;;1.02;;
1106;SDS011;540;49.448;8.612;2023-04-24T00:44:18;1.35;;;0.73;;
1106;SDS011;540;49.448;8.612;2023-04-24T00:46:46;2.25;;;0.90;;
1106;SDS011;540;49.448;8.612;2023-04-24T00:49:18;1.98;;;0.80;;
1106;SDS011;540;49.448;8.612;2023-04-24T00:51:47;2.22;;;0.90;;
1106;SDS011;540;49.448;8.612;2023-04-24T00:54:15;4.38;;;1.08;;
1106;SDS011;540;49.448;8.612;2023-04-24T00:56:44;4.53;;;1.00;;
1106;SDS011;540;49.448;8.612;2023-04-24T00:59:12;1.52;;;0.70;;
1106;SDS011;540;49.448;8.612;2023-04-24T01:01:40;4.18;;;1.17;;
1106;SDS011;540;49.448;8.612;2023-04-24T01:04:09;1.67;;;0.70;;
1106;SDS011;540;49.448;8.612;2023-04-24T01:06:39;3.20;;;1.90;;
1106;SDS011;540;49.448;8.612;2023-04-24T01:09:09;2.08;;;0.70;;
1106;SDS011;540;49.448;8.612;2023-04-24T01:11:39;1.52;;;0.75;;
1106;SDS011;540;49.448;8.612;2023-04-24T01:14:08;3.10;;;1.15;;
1106;SDS011;540;49.448;8.612;2023-04-24T01:16:36;4.65;;;0.80;;
1106;SDS011;540;49.448;8.612;2023-04-24T01:19:04;2.55;;;1.05;;
1106;SDS011;540;49.448;8.612;2023-04-24T01:21:33;3.15;;;0.82;;
1106;SDS011;540;49.448;8.612;2023-04-24T01:24:05;1.42;;;0.60;;
1106;SDS011;540;49.448;8.612;2023-04-24T01:26:45;1.85;;;0.90;;
1106;SDS011;540;49.448;8.612;2023-04-24T01:29:14;0.80;;;0.63;;
1106;SDS011;540;49.448;8.612;2023-04-24T01:31:41;2.97;;;0.85;;
1106;SDS011;540;49.448;8.612;2023-04-24T01:34:10;2.03;;;0.50;;
1106;SDS011;540;49.448;8.612;2023-04-24T01:36:38;0.77;;;0.57;;
1106;SDS011;540;49.448;8.612;2023-04-24T01:39:08;1.05;;;0.73;;
1106;SDS011;540;49.448;8.612;2023-04-24T01:41:35;2.10;;;0.80;;
1106;SDS011;540;49.448;8.612;2023-04-24T01:44:03;0.90;;;0.77;;
1106;SDS011;540;49.448;8.612;2023-04-24T01:46:31;1.25;;;0.85;;
1106;SDS011;540;49.448;8.612;2023-04-24T01:49:01;1.88;;;1.00;;
1106;SDS011;540;49.448;8.612;2023-04-24T01:51:29;1.48;;;0.70;;
1106;SDS011;540;49.448;8.612;2023-04-24T01:53:57;1.92;;;0.82;;
1106;SDS011;540;49.448;8.612;2023-04-24T01:56:26;0.90;;;0.80;;
1106;SDS011;540;49.448;8.612;2023-04-24T01:58:56;1.20;;;0.85;;
1106;SDS011;540;49.448;8.612;2023-04-24T02:01:25;2.75;;;0.60;;
1106;SDS011;540;49.448;8.612;2023-04-24T02:03:53;2.13;;;0.57;;
1106;SDS011;540;49.448;8.612;2023-04-24T02:06:21;4.53;;;0.98;;
1106;SDS011;540;49.448;8.612;2023-04-24T02:08:49;0.85;;;0.77;;
1106;SDS011;540;49.448;8.612;2023-04-24T02:11:17;2.20;;;0.85;;
1106;SDS011;540;49.448;8.612;2023-04-24T02:13:47;2.90;;;1.05;;
1106;SDS011;540;49.448;8.612;2023-04-24T02:16:14;1.63;;;0.80;;
1106;SDS011;540;49.448;8.612;2023-04-24T02:18:42;1.13;;;0.80;;
1106;SDS011;540;49.448;8.612;2023-04-24T02:21:10;3.75;;;0.77;;
1106;SDS011;540;49.448;8.612;2023-04-24T02:23:38;1.27;;;0.68;;
1106;SDS011;540;49.448;8.612;2023-04-24T02:26:06;0.82;;;0.82;;
1106;SDS011;540;49.448;8.612;2023-04-24T02:28:34;1.10;;;0.57;;
1106;SDS011;540;49.448;8.612;2023-04-24T02:31:03;1.20;;;0.70;;
1106;SDS011;540;49.448;8.612;2023-04-24T02:33:32;2.70;;;0.73;;
1106;SDS011;540;49.448;8.612;2023-04-24T02:36:01;3.95;;;0.90;;
1106;SDS011;540;49.448;8.612;2023-04-24T02:38:29;10.60;;;1.48;;
1106;SDS011;540;49.448;8.612;2023-04-24T02:40:56;2.05;;;0.98;;
1106;SDS011;540;49.448;8.612;2023-04-24T02:43:24;3.05;;;0.85;;
1106;SDS011;540;49.448;8.612;2023-04-24T02:45:52;6.28;;;1.02;;
1106;SDS011;540;49.448;8.612;2023-04-24T02:48:21;1.02;;;0.70;;
1106;SDS011;540;49.448;8.612;2023-04-24T02:50:49;2.95;;;0.80;;
1106;SDS011;540;49.448;8.612;2023-04-24T02:53:17;3.63;;;0.80;;
1106;SDS011;540;49.448;8.612;2023-04-24T02:55:45;2.63;;;0.85;;
1106;SDS011;540;49.448;8.612;2023-04-24T02:58:13;2.35;;;1.17;;
1106;SDS011;540;49.448;8.612;2023-04-24T03:00:41;4.47;;;1.13;;
1106;SDS011;540;49.448;8.612;2023-04-24T03:03:09;3.55;;;1.38;;
1106;SDS011;540;49.448;8.612;2023-04-24T03:05:38;2.72;;;1.00;;
1106;SDS011;540;49.448;8.612;2023-04-24T03:08:06;9.00;;;2.63;;
1106;SDS011;540;49.448;8.612;2023-04-24T03:10:34;4.10;;;1.30;;
1106;SDS011;540;49.448;8.612;2023-04-24T03:13:02;2.67;;;1.52;;
1106;SDS011;540;49.448;8.612;2023-04-24T03:15:29;1.92;;;1.00;;
1106;SDS011;540;49.448;8.612;2023-04-24T03:17:57;3.88;;;1.27;;
1106;SDS011;540;49.448;8.612;2023-04-24T03:20:26;1.63;;;1.20;;
1106;SDS011;540;49.448;8.612;2023-04-24T03:22:55;2.75;;;1.17;;
1106;SDS011;540;49.448;8.612;2023-04-24T03:25:23;1.48;;;1.27;;
1106;SDS011;540;49.448;8.612;2023-04-24T03:27:51;5.05;;;1.80;;
1106;SDS011;540;49.448;8.612;2023-04-24T03:30:20;2.83;;;1.40;;
1106;SDS011;540;49.448;8.612;2023-04-24T03:32:48;9.00;;;1.70;;
1106;SDS011;540;49.448;8.612;2023-04-24T03:35:16;3.88;;;1.90;;
1106;SDS011;540;49.448;8.612;2023-04-24T03:37:43;4.22;;;1.90;;
1106;SDS011;540;49.448;8.612;2023-04-24T03:40:13;3.90;;;1.75;;
1106;SDS011;540;49.448;8.612;2023-04-24T03:42:40;1.35;;;1.08;;
1106;SDS011;540;49.448;8.612;2023-04-24T03:45:08;4.68;;;1.30;;
1106;SDS011;540;49.448;8.612;2023-04-24T03:47:37;2.33;;;1.40;;
1106;SDS011;540;49.448;8.612;2023-04-24T03:50:05;3.33;;;1.40;;
1106;SDS011;540;49.448;8.612;2023-04-24T03:52:33;3.90;;;1.92;;
1106;SDS011;540;49.448;8.612;2023-04-24T03:55:01;2.83;;;1.45;;
1106;SDS011;540;49.448;8.612;2023-04-24T03:57:31;4.38;;;1.73;;
1106;SDS011;540;49.448;8.612;2023-04-24T03:59:58;2.90;;;1.80;;
1106;SDS011;540;49.448;8.612;2023-04-24T04:02:27;5.15;;;1.50;;
1106;SDS011;540;49.448;8.612;2023-04-24T04:04:55;3.15;;;1.10;;
1106;SDS011;540;49.448;8.612;2023-04-24T04:07:23;2.75;;;1.40;;
1106;SDS011;540;49.448;8.612;2023-04-24T04:09:51;3.42;;;1.35;;
1106;SDS011;540;49.448;8.612;2023-04-24T04:12:19;6.18;;;1.13;;
1106;SDS011;540;49.448;8.612;2023-04-24T04:14:48;3.50;;;1.27;;
1106;SDS011;540;49.448;8.612;2023-04-24T04:17:16;2.20;;;1.50;;
1106;SDS011;540;49.448;8.612;2023-04-24T04:19:44;1.52;;;1.35;;
1106;SDS011;540;49.448;8.612;2023-04-24T04:22:11;2.33;;;1.48;;
1106;SDS011;540;49.448;8.612;2023-04-24T04:24:39;2.47;;;1.30;;
1106;SDS011;540;49.448;8.612;2023-04-24T04:27:07;2.00;;;1.20;;
1106;SDS011;540;49.448;8.612;2023-04-24T04:29:35;1.73;;;1.42;;
1106;SDS011;540;49.448;8.612;2023-04-24T04:32:04;2.55;;;1.40;;
1106;SDS011;540;49.448;8.612;2023-04-24T04:34:32;4.82;;;1.50;;
1106;SDS011;540;49.448;8.612;2023-04-24T04:37:00;3.85;;;1.85;;
1106;SDS011;540;49.448;8.612;2023-04-24T04:39:28;5.07;;;2.20;;
1106;SDS011;540;49.448;8.612;2023-04-24T04:41:56;4.03;;;2.30;;
1106;SDS011;540;49.448;8.612;2023-04-24T04:44:24;3.33;;;2.00;;
1106;SDS011;540;49.448;8.612;2023-04-24T04:46:55;4.80;;;2.33;;
1106;SDS011;540;49.448;8.612;2023-04-24T04:49:26;3.00;;;1.85;;
1106;SDS011;540;49.448;8.612;2023-04-24T04:51:54;4.47;;;2.28;;
1106;SDS011;540;49.448;8.612;2023-04-24T04:54:22;5.95;;;2.67;;
1106;SDS011;540;49.448;8.612;2023-04-24T04:56:51;3.13;;;1.52;;
1106;SDS011;540;49.448;8.612;2023-04-24T04:59:18;4.68;;;2.50;;
1106;SDS011;540;49.448;8.612;2023-04-24T05:01:47;3.40;;;1.90;;
1106;SDS011;540;49.448;8.612;2023-04-24T05:04:14;4.25;;;2.10;;
1106;SDS011;540;49.448;8.612;2023-04-24T05:06:43;3.38;;;1.88;;
1106;SDS011;540;49.448;8.612;2023-04-24T05:09:13;2.28;;;1.73;;
1106;SDS011;540;49.448;8.612;2023-04-24T05:11:41;4.00;;;2.10;;
1106;SDS011;540;49.448;8.612;2023-04-24T05:14:08;2.90;;;2.20;;
1106;SDS011;540;49.448;8.612;2023-04-24T05:16:36;3.88;;;2.10;;
1106;SDS011;540;49.448;8.612;2023-04-24T05:19:04;5.20;;;1.83;;
1106;SDS011;540;49.448;8.612;2023-04-24T05:21:32;3.22;;;2.00;;
1106;SDS011;540;49.448;8.612;2023-04-24T05:24:01;7.03;;;2.17;;
1106;SDS011;540;49.448;8.612;2023-04-24T05:26:29;4.63;;;2.28;;
1106;SDS011;540;49.448;8.612;2023-04-24T05:28:57;4.78;;;2.38;;
1106;SDS011;540;49.448;8.612;2023-04-24T05:31:24;4.85;;;2.50;;
1106;SDS011;540;49.448;8.612;2023-04-24T05:33:52;3.78;;;2.45;;
1106;SDS011;540;49.448;8.612;2023-04-24T05:36:20;6.47;;;2.45;;
1106;SDS011;540;49.448;8.612;2023-04-24T05:38:48;3.35;;;2.25;;
1106;SDS011;540;49.448;8.612;2023-04-24T05:41:17;4.20;;;2.72;;
1106;SDS011;540;49.448;8.612;2023-04-24T05:43:45;4.75;;;2.53;;
1106;SDS011;540;49.448;8.612;2023-04-24T05:46:13;6.32;;;3.10;;
1106;SDS011;540;49.448;8.612;2023-04-24T05:48:40;5.57;;;2.97;;
1106;SDS011;540;49.448;8.612;2023-04-24T05:51:09;10.23;;;4.25;;
1106;SDS011;540;49.448;8.612;2023-04-24T05:53:37;7.72;;;3.53;;
1106;SDS011;540;49.448;8.612;2023-04-24T05:56:05;13.82;;;5.60;;
1106;SDS011;540;49.448;8.612;2023-04-24T05:58:34;4.47;;;2.63;;
1106;SDS011;540;49.448;8.612;2023-04-24T06:01:03;3.10;;;2.35;;
1106;SDS011;540;49.448;8.612;2023-04-24T06:03:31;6.35;;;3.28;;
1106;SDS011;540;49.448;8.612;2023-04-24T06:05:59;5.13;;;3.08;;
1106;SDS011;540;49.448;8.612;2023-04-24T06:08:27;4.95;;;3.05;;
1106;SDS011;540;49.448;8.612;2023-04-24T06:10:56;4.18;;;2.95;;
1106;SDS011;540;49.448;8.612;2023-04-24T06:13:24;6.00;;;2.72;;
1106;SDS011;540;49.448;8.612;2023-04-24T06:15:53;4.15;;;3.05;;
1106;SDS011;540;49.448;8.612;2023-04-24T06:18:21;3.92;;;2.78;;
1106;SDS011;540;49.448;8.612;2023-04-24T06:20:48;4.53;;;2.75;;
1106;SDS011;540;49.448;8.612;2023-04-24T06:23:16;6.13;;;2.90;;
1106;SDS011;540;49.448;8.612;2023-04-24T06:25:44;4.35;;;2.65;;
1106;SDS011;540;49.448;8.612;2023-04-24T06:28:12;5.43;;;2.65;;
1106;SDS011;540;49.448;8.612;2023-04-24T06:30:40;3.65;;;2.40;;
1106;SDS011;540;49.448;8.612;2023-04-24T06:33:09;3.42;;;2.38;;
1106;SDS011;540;49.448;8.612;2023-04-24T06:35:47;4.30;;;2.60;;
1106;SDS011;540;49.448;8.612;2023-04-24T06:38:14;5.13;;;2.75;;
1106;SDS011;540;49.448;8.612;2023-04-24T06:40:43;3.95;;;2.10;;
1106;SDS011;540;49.448;8.612;2023-04-24T06:43:11;3.90;;;2.88;;
1106;SDS011;540;49.448;8.612;2023-04-24T06:45:38;3.38;;;2.40;;
1106;SDS011;540;49.448;8.612;2023-04-24T06:48:06;8.85;;;5.38;;
1106;SDS011;540;49.448;8.612;2023-04-24T06:50:36;5.65;;;2.80;;
1106;SDS011;540;49.448;8.612;2023-04-24T06:53:03;4.28;;;2.00;;
1106;SDS011;540;49.448;8.612;2023-04-24T06:55:31;3.17;;;2.17;;
1106;SDS011;540;49.448;8.612;2023-04-24T06:57:59;3.15;;;2.10;;
1106;SDS011;540;49.448;8.612;2023-04-24T07:00:27;3.72;;;1.67;;
1106;SDS011;540;49.448;8.612;2023-04-24T07:02:56;1.58;;;1.48;;
1106;SDS011;540;49.448;8.612;2023-04-24T07:05:25;2.47;;;1.60;;
1106;SDS011;540;49.448;8.612;2023-04-24T07:07:54;2.40;;;1.10;;
1106;SDS011;540;49.448;8.612;2023-04-24T07:10:24;4.25;;;1.30;;
1106;SDS011;540;49.448;8.612;2023-04-24T07:12:54;1.50;;;1.23;;
1106;SDS011;540;49.448;8.612;2023-04-24T07:15:22;1.88;;;1.08;;
1106;SDS011;540;49.448;8.612;2023-04-24T07:17:50;1.42;;;0.85;;
1106;SDS011;540;49.448;8.612;2023-04-24T07:20:18;0.90;;;0.80;;
1106;SDS011;540;49.448;8.612;2023-04-24T07:22:47;1.02;;;0.80;;
1106;SDS011;540;49.448;8.612;2023-04-24T07:25:15;2.00;;;1.17;;
1106;SDS011;540;49.448;8.612;2023-04-24T07:27:43;0.95;;;0.80;;
1106;SDS011;540;49.448;8.612;2023-04-24T07:30:11;1.25;;;0.80;;
1106;SDS011;540;49.448;8.612;2023-04-24T07:32:39;1.20;;;0.90;;
1106;SDS011;540;49.448;8.612;2023-04-24T07:35:07;0.75;;;0.60;;
1106;SDS011;540;49.448;8.612;2023-04-24T07:37:36;1.60;;;1.08;;
1106;SDS011;540;49.448;8.612;2023-04-24T07:40:06;2.20;;;0.77;;
1106;SDS011;540;49.448;8.612;2023-04-24T07:42:34;1.30;;;1.20;;
1106;SDS011;540;49.448;8.612;2023-04-24T07:45:02;1.48;;;0.98;;
1106;SDS011;540;49.448;8.612;2023-04-24T07:47:31;2.72;;;0.90;;
1106;SDS011;540;49.448;8.612;2023-04-24T07:49:59;1.40;;;0.90;;
1106;SDS011;540;49.448;8.612;2023-04-24T07:52:27;4.15;;;1.90;;
1106;SDS011;540;49.448;8.612;2023-04-24T07:54:55;3.53;;;1.30;;
1106;SDS011;540;49.448;8.612;2023-04-24T07:57:27;2.50;;;0.95;;
1106;SDS011;540;49.448;8.612;2023-04-24T07:59:55;1.13;;;1.00;;
1106;SDS011;540;49.448;8.612;2023-04-24T08:02:24;1.52;;;1.15;;
1106;SDS011;540;49.448;8.612;2023-04-24T08:04:54;1.90;;;1.10;;
1106;SDS011;540;49.448;8.612;2023-04-24T08:07:26;1.00;;;0.90;;
1106;SDS011;540;49.448;8.612;2023-04-24T08:09:56;3.88;;;1.00;;
1106;SDS011;540;49.448;8.612;2023-04-24T08:12:27;1.85;;;1.35;;
1106;SDS011;540;49.448;8.612;2023-04-24T08:14:58;3.13;;;1.10;;
1106;SDS011;540;49.448;8.612;2023-04-24T08:17:27;2.22;;;1.10;;
1106;SDS011;540;49.448;8.612;2023-04-24T08:20:00;2.03;;;1.50;;
1106;SDS011;540;49.448;8.612;2023-04-24T08:22:32;1.88;;;1.08;;
1106;SDS011;540;49.448;8.612;2023-04-24T08:25:02;2.08;;;1.10;;
1106;SDS011;540;49.448;8.612;2023-04-24T08:27:33;2.78;;;1.35;;
1106;SDS011;540;49.448;8.612;2023-04-24T08:30:04;4.43;;;1.92;;
1106;SDS011;540;49.448;8.612;2023-04-24T08:32:36;3.33;;;1.88;;
1106;SDS011;540;49.448;8.612;2023-04-24T08:35:06;1.13;;;0.93;;
1106;SDS011;540;49.448;8.612;2023-04-24T08:37:37;1.88;;;1.38;;
1106;SDS011;540;49.448;8.612;2023-04-24T08:40:10;2.92;;;1.17;;
1106;SDS011;540;49.448;8.612;2023-04-24T08:42:44;3.47;;;1.77;;
1106;SDS011;540;49.448;8.612;2023-04-24T08:45:16;1.50;;;1.38;;
1106;SDS011;540;49.448;8.612;2023-04-24T08:47:46;2.72;;;1.45;;
1106;SDS011;540;49.448;8.612;2023-04-24T08:50:16;3.03;;;1.10;;
1106;SDS011;540;49.448;8.612;2023-04-24T08:52:45;3.05;;;1.23;;
1106;SDS011;540;49.448;8.612;2023-04-24T08:55:15;3.83;;;1.40;;
1106;SDS011;540;49.448;8.612;2023-04-24T08:57:50;4.45;;;1.50;;
1106;SDS011;540;49.448;8.612;2023-04-24T09:00:20;1.65;;;1.40;;
1106;SDS011;540;49.448;8.612;2023-04-24T09:02:49;3.90;;;1.30;;
1106;SDS011;540;49.448;8.612;2023-04-24T09:05:17;1.50;;;1.35;;
1106;SDS011;540;49.448;8.612;2023-04-24T09:07:49;3.08;;;1.08;;
1106;SDS011;540;49.448;8.612;2023-04-24T09:10:21;1.85;;;0.90;;
1106;SDS011;540;49.448;8.612;2023-04-24T09:12:51;1.90;;;1.17;;
1106;SDS011;540;49.448;8.612;2023-04-24T09:15:20;3.80;;;1.15;;
1106;SDS011;540;49.448;8.612;2023-04-24T09:17:47;2.33;;;1.50;;
1106;SDS011;540;49.448;8.612;2023-04-24T09:20:15;2.60;;;1.55;;
1106;SDS011;540;49.448;8.612;2023-04-24T09:22:43;4.68;;;2.00;;
1106;SDS011;540;49.448;8.612;2023-04-24T09:25:12;2.30;;;1.20;;
1106;SDS011;540;49.448;8.612;2023-04-24T09:27:43;3.38;;;1.20;;
1106;SDS011;540;49.448;8.612;2023-04-24T09:30:13;6.35;;;2.30;;
1106;SDS011;540;49.448;8.612;2023-04-24T09:32:48;2.47;;;1.48;;
1106;SDS011;540;49.448;8.612;2023-04-24T09:35:16;3.05;;;1.90;;
1106;SDS011;540;49.448;8.612;2023-04-24T09:37:45;1.70;;;1.30;;
1106;SDS011;540;49.448;8.612;2023-04-24T09:40:15;2.55;;;1.38;;
1106;SDS011;540;49.448;8.612;2023-04-24T09:42:44;3.65;;;1.52;;
1106;SDS011;540;49.448;8.612;2023-04-24T09:45:15;6.35;;;1.73;;
1106;SDS011;540;49.448;8.612;2023-04-24T09:47:43;1.92;;;1.60;;
1106;SDS011;540;49.448;8.612;2023-04-24T09:50:12;2.90;;;1.60;;
1106;SDS011;540;49.448;8.612;2023-04-24T09:52:43;1.83;;;1.40;;
1106;SDS011;540;49.448;8.612;2023-04-24T09:55:15;4.03;;;1.40;;
1106;SDS011;540;49.448;8.612;2023-04-24T10:00:20;4.38;;;3.63;;
1106;SDS011;540;49.448;8.612;2023-04-24T10:02:49;3.35;;;1.80;;
1106;SDS011;540;49.448;8.612;2023-04-24T10:05:19;3.53;;;1.48;;
1106;SDS011;540;49.448;8.612;2023-04-24T10:07:51;4.75;;;2.10;;
1106;SDS011;540;49.448;8.612;2023-04-24T10:10:19;2.13;;;1.65;;
1106;SDS011;540;49.448;8.612;2023-04-24T10:12:47;3.75;;;1.38;;
1106;SDS011;540;49.448;8.612;2023-04-24T10:15:15;2.92;;;1.90;;
1106;SDS011;540;49.448;8.612;2023-04-24T10:17:48;2.45;;;1.58;;
1106;SDS011;540;49.448;8.612;2023-04-24T10:20:19;3.10;;;1.75;;
1106;SDS011;540;49.448;8.612;2023-04-24T10:22:48;3.30;;;1.70;;
1106;SDS011;540;49.448;8.612;2023-04-24T10:25:18;3.60;;;2.00;;
1106;SDS011;540;49.448;8.612;2023-04-24T10:27:48;3.58;;;1.65;;
1106;SDS011;540;49.448;8.612;2023-04-24T10:30:18;1.63;;;1.00;;
1106;SDS011;540;49.448;8.612;2023-04-24T10:32:48;1.25;;;1.15;;
1106;SDS011;540;49.448;8.612;2023-04-24T10:35:16;1.67;;;1.13;;
1106;SDS011;540;49.448;8.612;2023-04-24T10:37:49;1.80;;;1.00;;
1106;SDS011;540;49.448;8.612;2023-04-24T10:40:19;1.88;;;1.30;;
1106;SDS011;540;49.448;8.612;2023-04-24T10:42:53;2.67;;;2.10;;
1106;SDS011;540;49.448;8.612;2023-04-24T10:45:24;3.42;;;1.58;;
1106;SDS011;540;49.448;8.612;2023-04-24T10:47:54;1.45;;;1.23;;
1106;SDS011;540;49.448;8.612;2023-04-24T10:50:25;2.15;;;1.40;;
1106;SDS011;540;49.448;8.612;2023-04-24T10:52:55;2.92;;;1.15;;
1106;SDS011;540;49.448;8.612;2023-04-24T10:55:40;2.40;;;1.73;;
1106;SDS011;540;49.448;8.612;2023-04-24T10:58:10;1.63;;;1.10;;
1106;SDS011;540;49.448;8.612;2023-04-24T11:00:38;2.70;;;1.25;;
1106;SDS011;540;49.448;8.612;2023-04-24T11:03:22;1.95;;;1.60;;
1106;SDS011;540;49.448;8.612;2023-04-24T11:05:52;1.30;;;1.08;;
1106;SDS011;540;49.448;8.612;2023-04-24T11:08:27;4.00;;;1.60;;
1106;SDS011;540;49.448;8.612;2023-04-24T11:10:57;3.40;;;1.35;;
1106;SDS011;540;49.448;8.612;2023-04-24T11:16:29;1.63;;;1.23;;
1106;SDS011;540;49.448;8.612;2023-04-24T11:19:04;1.50;;;1.30;;
1106;SDS011;540;49.448;8.612;2023-04-24T11:21:39;2.08;;;1.40;;
1106;SDS011;540;49.448;8.612;2023-04-24T11:24:27;5.18;;;1.40;;
1106;SDS011;540;49.448;8.612;2023-04-24T11:26:58;2.80;;;1.67;;
1106;SDS011;540;49.448;8.612;2023-04-24T11:29:42;2.40;;;1.52;;
1106;SDS011;540;49.448;8.612;2023-04-24T11:32:15;3.88;;;2.08;;
1106;SDS011;540;49.448;8.612;2023-04-24T11:34:49;2.10;;;1.40;;
1106;SDS011;540;49.448;8.612;2023-04-24T11:37:18;2.55;;;1.73;;
1106;SDS011;540;49.448;8.612;2023-04-24T11:39:46;3.67;;;1.90;;
1106;SDS011;540;49.448;8.612;2023-04-24T11:42:14;5.32;;;2.08;;
1106;SDS011;540;49.448;8.612;2023-04-24T11:44:42;4.10;;;2.25;;
1106;SDS011;540;49.448;8.612;2023-04-24T11:47:11;4.63;;;2.05;;
1106;SDS011;540;49.448;8.612;2023-04-24T11:49:38;3.10;;;1.70;;
1106;SDS011;540;49.448;8.612;2023-04-24T11:52:08;2.95;;;1.75;;
1106;SDS011;540;49.448;8.612;2023-04-24T11:54:36;4.78;;;2.05;;
1106;SDS011;540;49.448;8.612;2023-04-24T11:57:04;2.55;;;1.95;;
1106;SDS011;540;49.448;8.612;2023-04-24T11:59:36;4.32;;;2.17;;
1106;SDS011;540;49.448;8.612;2023-04-24T12:02:04;3.97;;;2.65;;
1106;SDS011;540;49.448;8.612;2023-04-24T12:04:39;4.45;;;2.83;;
1106;SDS011;540;49.448;8.612;2023-04-24T12:07:09;5.53;;;2.90;;
1106;SDS011;540;49.448;8.612;2023-04-24T12:09:40;4.60;;;2.60;;
1106;SDS011;540;49.448;8.612;2023-04-24T12:12:10;3.00;;;2.00;;
1106;SDS011;540;49.448;8.612;2023-04-24T12:14:42;8.00;;;3.15;;
1106;SDS011;540;49.448;8.612;2023-04-24T12:17:23;4.05;;;2.58;;
1106;SDS011;540;49.448;8.612;2023-04-24T12:19:57;3.42;;;2.55;;
1106;SDS011;540;49.448;8.612;2023-04-24T12:22:27;5.00;;;2.40;;
1106;SDS011;540;49.448;8.612;2023-04-24T12:24:55;7.07;;;2.40;;
1106;SDS011;540;49.448;8.612;2023-04-24T12:27:24;5.13;;;2.28;;
1106;SDS011;540;49.448;8.612;2023-04-24T12:29:52;5.90;;;2.33;;
1106;SDS011;540;49.448;8.612;2023-04-24T12:32:24;3.47;;;2.35;;
1106;SDS011;540;49.448;8.612;2023-04-24T12:34:53;9.05;;;2.25;;
1106;SDS011;540;49.448;8.612;2023-04-24T12:37:22;2.65;;;2.25;;
1106;SDS011;540;49.448;8.612;2023-04-24T12:40:02;2.90;;;2.30;;
1106;SDS011;540;49.448;8.612;2023-04-24T12:42:33;3.85;;;2.22;;
1106;SDS011;540;49.448;8.612;2023-04-24T12:45:02;3.28;;;2.20;;
1106;SDS011;540;49.448;8.612;2023-04-24T12:47:32;6.05;;;2.50;;
1106;SDS011;540;49.448;8.612;2023-04-24T12:50:00;3.38;;;2.33;;
1106;SDS011;540;49.448;8.612;2023-04-24T12:52:29;4.88;;;2.80;;
1106;SDS011;540;49.448;8.612;2023-04-24T12:54:58;5.05;;;2.42;;
1106;SDS011;540;49.448;8.612;2023-04-24T12:57:28;3.47;;;2.38;;
1106;SDS011;540;49.448;8.612;2023-04-24T12:59:57;5.30;;;2.30;;
1106;SDS011;540;49.448;8.612;2023-04-24T13:02:27;3.00;;;2.05;;
1106;SDS011;540;49.448;8.612;2023-04-24T13:04:56;3.97;;;2.50;;
1106;SDS011;540;49.448;8.612;2023-04-24T13:07:25;6.72;;;1.98;;
1106;SDS011;540;49.448;8.612;2023-04-24T13:09:54;2.28;;;2.08;;
1106;SDS011;540;49.448;8.612;2023-04-24T13:12:22;4.55;;;2.10;;
1106;SDS011;540;49.448;8.612;2023-04-24T13:14:52;5.18;;;2.30;;
1106;SDS011;540;49.448;8.612;2023-04-24T13:17:21;4.47;;;1.95;;
1106;SDS011;540;49.448;8.612;2023-04-24T13:19:49;4.18;;;2.28;;
1106;SDS011;540;49.448;8.612;2023-04-24T13:22:18;4.10;;;2.05;;
1106;SDS011;540;49.448;8.612;2023-04-24T13:24:46;3.20;;;1.90;;
1106;SDS011;540;49.448;8.612;2023-04-24T13:27:14;7.20;;;2.65;;
1106;SDS011;540;49.448;8.612;2023-04-24T13:29:42;4.35;;;2.20;;
1106;SDS011;540;49.448;8.612;2023-04-24T13:32:12;5.00;;;2.63;;
1106;SDS011;540;49.448;8.612;2023-04-24T13:34:40;9.93;;;3.38;;
1106;SDS011;540;49.448;8.612;2023-04-24T13:37:07;3.17;;;2.42;;
1106;SDS011;540;49.448;8.612;2023-04-24T13:39:35;4.13;;;2.35;;
1106;SDS011;540;49.448;8.612;2023-04-24T13:42:03;9.05;;;2.72;;
1106;SDS011;540;49.448;8.612;2023-04-24T13:44:31;3.47;;;2.58;;
1106;SDS011;540;49.448;8.612;2023-04-24T13:46:58;6.32;;;2.83;;
1106;SDS011;540;49.448;8.612;2023-04-24T13:49:27;6.07;;;2.70;;
1106;SDS011;540;49.448;8.612;2023-04-24T13:51:56;7.80;;;2.85;;
1106;SDS011;540;49.448;8.612;2023-04-24T13:54:24;3.65;;;2.40;;
1106;SDS011;540;49.448;8.612;2023-04-24T13:56:52;3.30;;;2.17;;
1106;SDS011;540;49.448;8.612;2023-04-24T13:59:20;5.10;;;2.88;;
1106;SDS011;540;49.448;8.612;2023-04-24T14:01:48;3.67;;;2.22;;
1106;SDS011;540;49.448;8.612;2023-04-24T14:04:16;4.10;;;2.95;;
1106;SDS011;540;49.448;8.612;2023-04-24T14:06:45;5.75;;;2.08;;
1106;SDS011;540;49.448;8.612;2023-04-24T14:09:13;2.40;;;1.95;;
1106;SDS011;540;49.448;8.612;2023-04-24T14:11:41;7.63;;;2.78;;
1106;SDS011;540;49.448;8.612;2023-04-24T14:14:09;5.88;;;2.05;;
1106;SDS011;540;49.448;8.612;2023-04-24T14:16:37;2.35;;;2.15;;
1106;SDS011;540;49.448;8.612;2023-04-24T14:19:05;3.70;;;2.17;;
1106;SDS011;540;49.448;8.612;2023-04-24T14:21:33;3.42;;;2.05;;
1106;SDS011;540;49.448;8.612;2023-04-24T14:24:02;5.30;;;1.90;;
1106;SDS011;540;49.448;8.612;2023-04-24T14:26:30;3.72;;;2.22;;
1106;SDS011;540;49.448;8.612;2023-04-24T14:28:58;4.93;;;2.22;;
1106;SDS011;540;49.448;8.612;2023-04-24T14:31:39;4.70;;;2.38;;
1106;SDS011;540;49.448;8.612;2023-04-24T14:34:07;4.68;;;2.50;;
1106;SDS011;540;49.448;8.612;2023-04-24T14:36:35;3.72;;;2.35;;
1106;SDS011;540;49.448;8.612;2023-04-24T14:39:05;7.95;;;2.88;;
1106;SDS011;540;49.448;8.612;2023-04-24T14:41:33;5.78;;;3.30;;
1106;SDS011;540;49.448;8.612;2023-04-24T14:44:03;6.00;;;2.88;;
1106;SDS011;540;49.448;8.612;2023-04-24T14:46:31;5.95;;;3.28;;
1106;SDS011;540;49.448;8.612;2023-04-24T14:48:59;5.90;;;2.95;;
1106;SDS011;540;49.448;8.612;2023-04-24T14:51:27;5.80;;;2.75;;
1106;SDS011;540;49.448;8.612;2023-04-24T14:53:55;5.90;;;3.33;;
1106;SDS011;540;49.448;8.612;2023-04-24T14:56:24;6.70;;;3.88;;
1106;SDS011;540;49.448;8.612;2023-04-24T14:58:52;4.97;;;2.97;;
1106;SDS011;540;49.448;8.612;2023-04-24T15:01:20;5.97;;;3.47;;
1106;SDS011;540;49.448;8.612;2023-04-24T15:03:48;6.57;;;3.47;;
1106;SDS011;540;49.448;8.612;2023-04-24T15:06:17;5.90;;;3.97;;
1106;SDS011;540;49.448;8.612;2023-04-24T15:08:46;5.05;;;3.30;;
1106;SDS011;540;49.448;8.612;2023-04-24T15:11:15;7.55;;;3.70;;
1106;SDS011;540;49.448;8.612;2023-04-24T15:13:45;4.40;;;3.00;;
1106;SDS011;540;49.448;8.612;2023-04-24T15:16:13;4.53;;;2.70;;
1106;SDS011;540;49.448;8.612;2023-04-24T15:18:41;6.80;;;2.78;;
1106;SDS011;540;49.448;8.612;2023-04-24T15:21:09;3.97;;;2.45;;
1106;SDS011;540;49.448;8.612;2023-04-24T15:23:39;5.53;;;2.83;;
1106;SDS011;540;49.448;8.612;2023-04-24T15:26:06;3.33;;;2.28;;
1106;SDS011;540;49.448;8.612;2023-04-24T15:28:34;3.13;;;2.40;;
1106;SDS011;540;49.448;8.612;2023-04-24T15:31:03;4.35;;;2.88;;
1106;SDS011;540;49.448;8.612;2023-04-24T15:33:31;6.72;;;2.97;;
1106;SDS011;540;49.448;8.612;2023-04-24T15:35:59;4.82;;;3.20;;
1106;SDS011;540;49.448;8.612;2023-04-24T15:38:27;2.80;;;2.42;;
1106;SDS011;540;49.448;8.612;2023-04-24T15:40:55;8.75;;;3.15;;
1106;SDS011;540;49.448;8.612;2023-04-24T15:43:22;6.10;;;2.83;;
1106;SDS011;540;49.448;8.612;2023-04-24T15:45:50;5.28;;;2.83;;
1106;SDS011;540;49.448;8.612;2023-04-24T15:48:19;5.60;;;3.05;;